sensor_id;sensor_type;location;lat;lon;timestamp;P1;durP1;ratioP1;P2;durP2;ratioP2
52186;SDS011;38161;53.020;6.598;2022-09-30T00:01:08;6.20;;;3.90;;
52186;SDS011;38161;53.020;6.598;2022-09-30T00:03:34;6.70;;;4.63;;
52186;SDS011;38161;53.020;6.598;2022-09-30T00:06:04;7.68;;;3.72;;
52186;SDS011;38161;53.020;6.598;2022-09-30T00:08:31;4.97;;;3.67;;
52186;SDS011;38161;53.020;6.598;2022-09-30T00:13:53;6.22;;;4.10;;
52186;SDS011;38161;53.020;6.598;2022-09-30T00:16:20;4.43;;;3.60;;
52186;SDS011;38161;53.020;6.598;2022-09-30T00:18:47;6.68;;;4.00;;
52186;SDS011;38161;53.020;6.598;2022-09-30T00:21:14;5.85;;;3.92;;
52186;SDS011;38161;53.020;6.598;2022-09-30T00:23:41;4.88;;;3.55;;
52186;SDS011;38161;53.020;6.598;2022-09-30T00:28:36;5.15;;;3.22;;
52186;SDS011;38161;53.020;6.598;2022-09-30T00:31:03;5.97;;;3.33;;
52186;SDS011;38161;53.020;6.598;2022-09-30T00:33:31;6.55;;;3.65;;
52186;SDS011;38161;53.020;6.598;2022-09-30T00:35:57;6.75;;;3.75;;
52186;SDS011;38161;53.020;6.598;2022-09-30T00:38:23;5.85;;;3.75;;
52186;SDS011;38161;53.020;6.598;2022-09-30T00:40:49;7.10;;;3.87;;
52186;SDS011;38161;53.020;6.598;2022-09-30T00:43:16;6.35;;;3.50;;
52186;SDS011;38161;53.020;6.598;2022-09-30T00:45:48;9.27;;;3.20;;
52186;SDS011;38161;53.020;6.598;2022-09-30T00:48:19;6.60;;;3.47;;
52186;SDS011;38161;53.020;6.598;2022-09-30T00:50:51;5.57;;;3.78;;
52186;SDS011;38161;53.020;6.598;2022-09-30T00:53:29;5.68;;;3.30;;
52186;SDS011;38161;53.020;6.598;2022-09-30T00:56:17;6.95;;;3.40;;
52186;SDS011;38161;53.020;6.598;2022-09-30T01:01:20;4.25;;;3.10;;
52186;SDS011;38161;53.020;6.598;2022-09-30T01:03:47;4.07;;;3.22;;
52186;SDS011;38161;53.020;6.598;2022-09-30T01:06:17;5.13;;;3.17;;
52186;SDS011;38161;53.020;6.598;2022-09-30T01:08:46;3.92;;;2.55;;
52186;SDS011;38161;53.020;6.598;2022-09-30T01:11:12;4.13;;;2.78;;
52186;SDS011;38161;53.020;6.598;2022-09-30T01:21:40;3.67;;;2.65;;
52186;SDS011;38161;53.020;6.598;2022-09-30T01:33:39;4.55;;;2.88;;
52186;SDS011;38161;53.020;6.598;2022-09-30T01:41:40;3.95;;;2.70;;
52186;SDS011;38161;53.020;6.598;2022-09-30T01:44:29;4.65;;;2.92;;
52186;SDS011;38161;53.020;6.598;2022-09-30T01:47:11;4.30;;;3.00;;
52186;SDS011;38161;53.020;6.598;2022-09-30T01:49:54;6.97;;;3.25;;
52186;SDS011;38161;53.020;6.598;2022-09-30T01:52:35;5.18;;;3.10;;
52186;SDS011;38161;53.020;6.598;2022-09-30T01:55:18;4.45;;;3.17;;
52186;SDS011;38161;53.020;6.598;2022-09-30T01:57:58;5.85;;;3.55;;
52186;SDS011;38161;53.020;6.598;2022-09-30T02:00:26;5.13;;;3.15;;
52186;SDS011;38161;53.020;6.598;2022-09-30T02:02:54;4.68;;;2.92;;
52186;SDS011;38161;53.020;6.598;2022-09-30T02:05:36;4.70;;;3.10;;
52186;SDS011;38161;53.020;6.598;2022-09-30T02:11:07;5.63;;;3.25;;
52186;SDS011;38161;53.020;6.598;2022-09-30T02:16:33;4.80;;;3.22;;
52186;SDS011;38161;53.020;6.598;2022-09-30T02:24:54;4.07;;;2.88;;
52186;SDS011;38161;53.020;6.598;2022-09-30T02:27:28;4.75;;;3.35;;
52186;SDS011;38161;53.020;6.598;2022-09-30T02:30:06;5.22;;;3.17;;
52186;SDS011;38161;53.020;6.598;2022-09-30T02:32:47;5.10;;;3.60;;
52186;SDS011;38161;53.020;6.598;2022-09-30T02:35:30;5.40;;;3.67;;
52186;SDS011;38161;53.020;6.598;2022-09-30T02:38:08;4.47;;;3.22;;
52186;SDS011;38161;53.020;6.598;2022-09-30T02:41:03;4.65;;;3.38;;
52186;SDS011;38161;53.020;6.598;2022-09-30T02:43:34;4.93;;;3.40;;
52186;SDS011;38161;53.020;6.598;2022-09-30T02:51:13;5.75;;;3.47;;
52186;SDS011;38161;53.020;6.598;2022-09-30T02:54:00;7.28;;;3.55;;
52186;SDS011;38161;53.020;6.598;2022-09-30T02:59:21;5.63;;;3.70;;
52186;SDS011;38161;53.020;6.598;2022-09-30T03:01:48;5.45;;;3.78;;
52186;SDS011;38161;53.020;6.598;2022-09-30T03:04:15;4.70;;;3.47;;
52186;SDS011;38161;53.020;6.598;2022-09-30T03:06:49;5.68;;;3.05;;
52186;SDS011;38161;53.020;6.598;2022-09-30T03:09:15;5.80;;;3.42;;
52186;SDS011;38161;53.020;6.598;2022-09-30T03:11:41;4.93;;;3.70;;
52186;SDS011;38161;53.020;6.598;2022-09-30T03:14:10;4.70;;;3.25;;
52186;SDS011;38161;53.020;6.598;2022-09-30T03:19:53;5.97;;;4.45;;
52186;SDS011;38161;53.020;6.598;2022-09-30T03:25:31;6.53;;;4.45;;
52186;SDS011;38161;53.020;6.598;2022-09-30T03:30:43;6.82;;;4.20;;
52186;SDS011;38161;53.020;6.598;2022-09-30T03:33:22;7.63;;;4.20;;
52186;SDS011;38161;53.020;6.598;2022-09-30T03:41:29;5.78;;;3.80;;
52186;SDS011;38161;53.020;6.598;2022-09-30T03:44:13;5.13;;;3.42;;
52186;SDS011;38161;53.020;6.598;2022-09-30T03:46:50;4.30;;;3.13;;
52186;SDS011;38161;53.020;6.598;2022-09-30T03:49:20;5.20;;;3.65;;
52186;SDS011;38161;53.020;6.598;2022-09-30T03:51:49;5.18;;;3.22;;
52186;SDS011;38161;53.020;6.598;2022-09-30T03:54:15;9.35;;;3.05;;
52186;SDS011;38161;53.020;6.598;2022-09-30T03:56:41;10.90;;;2.30;;
52186;SDS011;38161;53.020;6.598;2022-09-30T03:59:23;12.05;;;2.53;;
52186;SDS011;38161;53.020;6.598;2022-09-30T04:01:50;4.85;;;2.53;;
52186;SDS011;38161;53.020;6.598;2022-09-30T04:04:16;2.97;;;2.15;;
52186;SDS011;38161;53.020;6.598;2022-09-30T04:06:42;5.07;;;2.33;;
52186;SDS011;38161;53.020;6.598;2022-09-30T04:09:08;4.50;;;2.65;;
52186;SDS011;38161;53.020;6.598;2022-09-30T04:11:34;3.42;;;2.28;;
52186;SDS011;38161;53.020;6.598;2022-09-30T04:14:00;3.55;;;2.63;;
52186;SDS011;38161;53.020;6.598;2022-09-30T04:16:29;4.22;;;2.63;;
52186;SDS011;38161;53.020;6.598;2022-09-30T04:18:55;3.13;;;2.25;;
52186;SDS011;38161;53.020;6.598;2022-09-30T04:21:23;3.20;;;2.30;;
52186;SDS011;38161;53.020;6.598;2022-09-30T04:23:52;3.90;;;2.67;;
52186;SDS011;38161;53.020;6.598;2022-09-30T04:28:45;3.53;;;2.38;;
52186;SDS011;38161;53.020;6.598;2022-09-30T04:31:11;7.50;;;2.47;;
52186;SDS011;38161;53.020;6.598;2022-09-30T04:33:38;4.05;;;2.90;;
52186;SDS011;38161;53.020;6.598;2022-09-30T04:36:05;3.13;;;2.47;;
52186;SDS011;38161;53.020;6.598;2022-09-30T04:38:31;3.35;;;2.25;;
52186;SDS011;38161;53.020;6.598;2022-09-30T04:41:00;3.28;;;2.30;;
52186;SDS011;38161;53.020;6.598;2022-09-30T04:43:29;4.38;;;2.80;;
52186;SDS011;38161;53.020;6.598;2022-09-30T04:45:56;3.65;;;2.42;;
52186;SDS011;38161;53.020;6.598;2022-09-30T04:48:22;3.67;;;2.70;;
52186;SDS011;38161;53.020;6.598;2022-09-30T04:50:48;4.22;;;2.60;;
52186;SDS011;38161;53.020;6.598;2022-09-30T04:53:15;3.92;;;2.72;;
52186;SDS011;38161;53.020;6.598;2022-09-30T04:55:42;4.18;;;2.60;;
52186;SDS011;38161;53.020;6.598;2022-09-30T04:58:09;3.33;;;2.17;;
52186;SDS011;38161;53.020;6.598;2022-09-30T05:00:35;4.15;;;2.22;;
52186;SDS011;38161;53.020;6.598;2022-09-30T05:03:01;3.20;;;2.30;;
52186;SDS011;38161;53.020;6.598;2022-09-30T05:05:28;3.55;;;2.47;;
52186;SDS011;38161;53.020;6.598;2022-09-30T05:10:24;3.15;;;2.00;;
52186;SDS011;38161;53.020;6.598;2022-09-30T05:12:51;3.42;;;2.50;;
52186;SDS011;38161;53.020;6.598;2022-09-30T05:15:17;4.75;;;2.58;;
52186;SDS011;38161;53.020;6.598;2022-09-30T05:17:42;3.40;;;2.30;;
52186;SDS011;38161;53.020;6.598;2022-09-30T05:20:08;3.43;;;2.10;;
52186;SDS011;38161;53.020;6.598;2022-09-30T05:25:01;3.03;;;2.30;;
52186;SDS011;38161;53.020;6.598;2022-09-30T05:27:28;3.17;;;1.98;;
52186;SDS011;38161;53.020;6.598;2022-09-30T05:29:54;3.50;;;2.50;;
52186;SDS011;38161;53.020;6.598;2022-09-30T05:32:20;2.90;;;2.20;;
52186;SDS011;38161;53.020;6.598;2022-09-30T05:34:46;3.40;;;2.25;;
52186;SDS011;38161;53.020;6.598;2022-09-30T05:37:12;7.70;;;2.70;;
52186;SDS011;38161;53.020;6.598;2022-09-30T05:39:39;3.53;;;2.38;;
52186;SDS011;38161;53.020;6.598;2022-09-30T05:42:05;4.85;;;2.70;;
52186;SDS011;38161;53.020;6.598;2022-09-30T05:44:30;5.37;;;2.57;;
52186;SDS011;38161;53.020;6.598;2022-09-30T05:46:56;5.30;;;2.60;;
52186;SDS011;38161;53.020;6.598;2022-09-30T05:49:23;4.22;;;2.50;;
52186;SDS011;38161;53.020;6.598;2022-09-30T05:51:50;5.22;;;2.60;;
52186;SDS011;38161;53.020;6.598;2022-09-30T05:54:16;3.95;;;2.40;;
52186;SDS011;38161;53.020;6.598;2022-09-30T05:56:42;5.83;;;2.20;;
52186;SDS011;38161;53.020;6.598;2022-09-30T05:59:08;3.37;;;2.33;;
52186;SDS011;38161;53.020;6.598;2022-09-30T06:01:33;3.80;;;2.33;;
52186;SDS011;38161;53.020;6.598;2022-09-30T06:04:00;4.22;;;2.83;;
52186;SDS011;38161;53.020;6.598;2022-09-30T06:06:25;3.88;;;2.80;;
52186;SDS011;38161;53.020;6.598;2022-09-30T06:08:51;4.00;;;2.80;;
52186;SDS011;38161;53.020;6.598;2022-09-30T06:11:19;6.73;;;2.50;;
52186;SDS011;38161;53.020;6.598;2022-09-30T06:13:47;4.88;;;3.30;;
52186;SDS011;38161;53.020;6.598;2022-09-30T06:18:40;6.90;;;3.03;;
52186;SDS011;38161;53.020;6.598;2022-09-30T06:21:06;12.63;;;3.33;;
52186;SDS011;38161;53.020;6.598;2022-09-30T06:23:34;12.52;;;4.10;;
52186;SDS011;38161;53.020;6.598;2022-09-30T06:26:01;6.32;;;4.10;;
52186;SDS011;38161;53.020;6.598;2022-09-30T06:28:28;5.40;;;3.90;;
52186;SDS011;38161;53.020;6.598;2022-09-30T06:30:54;7.07;;;4.23;;
52186;SDS011;38161;53.020;6.598;2022-09-30T06:33:20;5.53;;;4.43;;
52186;SDS011;38161;53.020;6.598;2022-09-30T06:35:46;8.40;;;4.55;;
52186;SDS011;38161;53.020;6.598;2022-09-30T06:38:13;6.35;;;4.65;;
52186;SDS011;38161;53.020;6.598;2022-09-30T06:40:40;7.07;;;4.03;;
52186;SDS011;38161;53.020;6.598;2022-09-30T06:43:13;5.10;;;3.95;;
52186;SDS011;38161;53.020;6.598;2022-09-30T06:45:39;6.47;;;4.37;;
52186;SDS011;38161;53.020;6.598;2022-09-30T06:48:05;6.50;;;4.87;;
52186;SDS011;38161;53.020;6.598;2022-09-30T06:50:34;7.13;;;4.45;;
52186;SDS011;38161;53.020;6.598;2022-09-30T06:53:01;9.43;;;5.20;;
52186;SDS011;38161;53.020;6.598;2022-09-30T06:55:30;6.13;;;4.63;;
52186;SDS011;38161;53.020;6.598;2022-09-30T07:00:23;7.20;;;4.50;;
52186;SDS011;38161;53.020;6.598;2022-09-30T07:02:50;6.32;;;4.85;;
52186;SDS011;38161;53.020;6.598;2022-09-30T07:05:18;7.15;;;5.65;;
52186;SDS011;38161;53.020;6.598;2022-09-30T07:07:44;7.15;;;5.78;;
52186;SDS011;38161;53.020;6.598;2022-09-30T07:10:09;8.03;;;6.00;;
52186;SDS011;38161;53.020;6.598;2022-09-30T07:12:35;8.82;;;6.40;;
52186;SDS011;38161;53.020;6.598;2022-09-30T07:15:01;10.73;;;7.40;;
52186;SDS011;38161;53.020;6.598;2022-09-30T07:17:27;7.50;;;5.55;;
52186;SDS011;38161;53.020;6.598;2022-09-30T07:19:53;10.85;;;7.95;;
52186;SDS011;38161;53.020;6.598;2022-09-30T07:22:19;12.95;;;8.27;;
52186;SDS011;38161;53.020;6.598;2022-09-30T07:24:57;10.70;;;8.40;;
52186;SDS011;38161;53.020;6.598;2022-09-30T07:27:24;13.30;;;9.30;;
52186;SDS011;38161;53.020;6.598;2022-09-30T07:32:16;13.60;;;9.63;;
52186;SDS011;38161;53.020;6.598;2022-09-30T07:34:43;10.85;;;7.80;;
52186;SDS011;38161;53.020;6.598;2022-09-30T07:39:36;14.65;;;10.02;;
52186;SDS011;38161;53.020;6.598;2022-09-30T07:42:03;13.30;;;10.35;;
52186;SDS011;38161;53.020;6.598;2022-09-30T07:44:30;14.65;;;10.02;;
52186;SDS011;38161;53.020;6.598;2022-09-30T07:49:23;14.93;;;10.05;;
52186;SDS011;38161;53.020;6.598;2022-09-30T07:51:50;14.35;;;10.38;;
52186;SDS011;38161;53.020;6.598;2022-09-30T07:54:19;15.35;;;10.73;;
52186;SDS011;38161;53.020;6.598;2022-09-30T07:56:47;14.73;;;11.10;;
52186;SDS011;38161;53.020;6.598;2022-09-30T08:01:40;14.60;;;10.70;;
52186;SDS011;38161;53.020;6.598;2022-09-30T08:04:06;19.70;;;11.60;;
52186;SDS011;38161;53.020;6.598;2022-09-30T08:06:40;18.15;;;10.73;;
52186;SDS011;38161;53.020;6.598;2022-09-30T08:09:09;26.05;;;12.43;;
52186;SDS011;38161;53.020;6.598;2022-09-30T08:11:36;35.78;;;13.23;;
52186;SDS011;38161;53.020;6.598;2022-09-30T08:14:05;22.45;;;12.20;;
52186;SDS011;38161;53.020;6.598;2022-09-30T08:16:31;20.77;;;11.15;;
52186;SDS011;38161;53.020;6.598;2022-09-30T08:18:57;16.13;;;11.00;;
52186;SDS011;38161;53.020;6.598;2022-09-30T08:21:25;16.50;;;11.05;;
52186;SDS011;38161;53.020;6.598;2022-09-30T08:23:52;16.48;;;11.50;;
52186;SDS011;38161;53.020;6.598;2022-09-30T08:26:18;20.67;;;10.70;;
52186;SDS011;38161;53.020;6.598;2022-09-30T08:28:44;17.52;;;10.45;;
52186;SDS011;38161;53.020;6.598;2022-09-30T08:31:15;33.75;;;11.43;;
52186;SDS011;38161;53.020;6.598;2022-09-30T08:33:43;27.30;;;10.30;;
52186;SDS011;38161;53.020;6.598;2022-09-30T08:36:10;15.20;;;9.82;;
52186;SDS011;38161;53.020;6.598;2022-09-30T08:38:37;15.48;;;10.32;;
52186;SDS011;38161;53.020;6.598;2022-09-30T08:52:34;12.48;;;9.18;;
52186;SDS011;38161;53.020;6.598;2022-09-30T08:55:01;17.60;;;10.30;;
52186;SDS011;38161;53.020;6.598;2022-09-30T08:57:38;16.17;;;10.95;;
52186;SDS011;38161;53.020;6.598;2022-09-30T09:00:11;16.98;;;10.63;;
52186;SDS011;38161;53.020;6.598;2022-09-30T09:02:49;17.10;;;10.88;;
52186;SDS011;38161;53.020;6.598;2022-09-30T09:11:00;15.32;;;10.55;;
52186;SDS011;38161;53.020;6.598;2022-09-30T09:13:50;14.77;;;10.23;;
52186;SDS011;38161;53.020;6.598;2022-09-30T09:19:07;16.55;;;10.82;;
52186;SDS011;38161;53.020;6.598;2022-09-30T09:24:25;19.17;;;11.45;;
52186;SDS011;38161;53.020;6.598;2022-09-30T09:26:54;19.02;;;12.95;;
52186;SDS011;38161;53.020;6.598;2022-09-30T09:30:09;21.15;;;13.82;;
52186;SDS011;38161;53.020;6.598;2022-09-30T09:34:59;20.83;;;13.70;;
52186;SDS011;38161;53.020;6.598;2022-09-30T09:37:33;23.95;;;14.95;;
52186;SDS011;38161;53.020;6.598;2022-09-30T09:40:32;20.77;;;15.05;;
52186;SDS011;38161;53.020;6.598;2022-09-30T09:43:04;20.13;;;13.68;;
52186;SDS011;38161;53.020;6.598;2022-09-30T09:46:00;19.33;;;13.35;;
52186;SDS011;38161;53.020;6.598;2022-09-30T09:48:53;18.70;;;13.13;;
52186;SDS011;38161;53.020;6.598;2022-09-30T09:51:41;20.48;;;13.43;;
52186;SDS011;38161;53.020;6.598;2022-09-30T09:54:11;19.35;;;12.75;;
52186;SDS011;38161;53.020;6.598;2022-09-30T09:56:40;15.32;;;10.93;;
52186;SDS011;38161;53.020;6.598;2022-09-30T09:59:13;10.63;;;8.63;;
52186;SDS011;38161;53.020;6.598;2022-09-30T10:04:21;10.05;;;6.70;;
52186;SDS011;38161;53.020;6.598;2022-09-30T10:09:27;8.30;;;6.50;;
52186;SDS011;38161;53.020;6.598;2022-09-30T10:14:31;8.02;;;5.15;;
52186;SDS011;38161;53.020;6.598;2022-09-30T10:17:32;7.50;;;4.43;;
52186;SDS011;38161;53.020;6.598;2022-09-30T10:20:00;5.95;;;4.30;;
52186;SDS011;38161;53.020;6.598;2022-09-30T10:22:31;5.28;;;3.50;;
52186;SDS011;38161;53.020;6.598;2022-09-30T10:27:57;9.43;;;3.42;;
52186;SDS011;38161;53.020;6.598;2022-09-30T10:30:32;5.07;;;3.33;;
52186;SDS011;38161;53.020;6.598;2022-09-30T10:33:09;4.75;;;2.80;;
52186;SDS011;38161;53.020;6.598;2022-09-30T10:35:47;3.85;;;2.50;;
52186;SDS011;38161;53.020;6.598;2022-09-30T10:38:17;4.70;;;2.70;;
52186;SDS011;38161;53.020;6.598;2022-09-30T10:40:44;3.70;;;2.70;;
52186;SDS011;38161;53.020;6.598;2022-09-30T10:43:18;3.65;;;2.83;;
52186;SDS011;38161;53.020;6.598;2022-09-30T10:45:58;5.88;;;3.03;;
52186;SDS011;38161;53.020;6.598;2022-09-30T10:48:27;7.03;;;2.72;;
52186;SDS011;38161;53.020;6.598;2022-09-30T10:50:57;5.43;;;2.97;;
52186;SDS011;38161;53.020;6.598;2022-09-30T10:53:23;5.28;;;2.97;;
52186;SDS011;38161;53.020;6.598;2022-09-30T10:55:54;5.78;;;3.17;;
52186;SDS011;38161;53.020;6.598;2022-09-30T11:01:24;4.72;;;3.22;;
52186;SDS011;38161;53.020;6.598;2022-09-30T11:04:21;6.25;;;4.07;;
52186;SDS011;38161;53.020;6.598;2022-09-30T11:06:49;5.25;;;4.00;;
52186;SDS011;38161;53.020;6.598;2022-09-30T11:09:32;6.95;;;4.30;;
52186;SDS011;38161;53.020;6.598;2022-09-30T11:12:09;5.40;;;4.32;;
52186;SDS011;38161;53.020;6.598;2022-09-30T11:14:46;7.00;;;4.25;;
52186;SDS011;38161;53.020;6.598;2022-09-30T11:17:52;6.40;;;4.03;;
52186;SDS011;38161;53.020;6.598;2022-09-30T11:21:20;5.43;;;3.75;;
52186;SDS011;38161;53.020;6.598;2022-09-30T11:23:33;5.55;;;4.20;;
52186;SDS011;38161;53.020;6.598;2022-09-30T11:26:08;7.18;;;4.50;;
52186;SDS011;38161;53.020;6.598;2022-09-30T11:29:08;5.85;;;4.25;;
52186;SDS011;38161;53.020;6.598;2022-09-30T11:31:44;7.90;;;4.32;;
52186;SDS011;38161;53.020;6.598;2022-09-30T11:34:42;5.65;;;3.90;;
52186;SDS011;38161;53.020;6.598;2022-09-30T11:52:11;5.63;;;3.60;;
52186;SDS011;38161;53.020;6.598;2022-09-30T12:00:24;7.55;;;3.10;;
52186;SDS011;38161;53.020;6.598;2022-09-30T12:02:52;4.78;;;3.10;;
52186;SDS011;38161;53.020;6.598;2022-09-30T12:07:59;4.75;;;2.83;;
52186;SDS011;38161;53.020;6.598;2022-09-30T12:10:49;6.10;;;2.50;;
52186;SDS011;38161;53.020;6.598;2022-09-30T12:13:25;4.28;;;3.00;;
52186;SDS011;38161;53.020;6.598;2022-09-30T12:15:58;4.50;;;2.63;;
52186;SDS011;38161;53.020;6.598;2022-09-30T12:18:34;4.32;;;2.70;;
52186;SDS011;38161;53.020;6.598;2022-09-30T12:21:27;4.50;;;2.65;;
52186;SDS011;38161;53.020;6.598;2022-09-30T12:24:12;4.93;;;2.42;;
52186;SDS011;38161;53.020;6.598;2022-09-30T12:26:49;4.78;;;2.55;;
52186;SDS011;38161;53.020;6.598;2022-09-30T12:29:36;4.38;;;2.47;;
52186;SDS011;38161;53.020;6.598;2022-09-30T12:37:49;5.45;;;3.30;;
52186;SDS011;38161;53.020;6.598;2022-09-30T12:46:16;6.72;;;3.75;;
52186;SDS011;38161;53.020;6.598;2022-09-30T12:49:03;6.95;;;4.00;;
52186;SDS011;38161;53.020;6.598;2022-09-30T12:51:34;7.05;;;4.70;;
52186;SDS011;38161;53.020;6.598;2022-09-30T12:57:06;7.22;;;5.43;;
52186;SDS011;38161;53.020;6.598;2022-09-30T12:59:37;7.90;;;5.95;;
52186;SDS011;38161;53.020;6.598;2022-09-30T13:02:24;7.88;;;6.78;;
52186;SDS011;38161;53.020;6.598;2022-09-30T13:04:52;8.75;;;6.93;;
52186;SDS011;38161;53.020;6.598;2022-09-30T13:07:21;8.77;;;7.30;;
52186;SDS011;38161;53.020;6.598;2022-09-30T13:09:57;11.45;;;6.75;;
52186;SDS011;38161;53.020;6.598;2022-09-30T13:12:41;8.85;;;6.10;;
52186;SDS011;38161;53.020;6.598;2022-09-30T13:15:22;7.68;;;5.75;;
52186;SDS011;38161;53.020;6.598;2022-09-30T13:24:02;10.15;;;7.38;;
52186;SDS011;38161;53.020;6.598;2022-09-30T13:28:51;9.82;;;7.65;;
52186;SDS011;38161;53.020;6.598;2022-09-30T13:31:19;8.75;;;7.00;;
52186;SDS011;38161;53.020;6.598;2022-09-30T13:36:28;9.43;;;7.45;;
52186;SDS011;38161;53.020;6.598;2022-09-30T13:44:58;12.30;;;7.70;;
52186;SDS011;38161;53.020;6.598;2022-09-30T13:47:29;9.35;;;7.20;;
52186;SDS011;38161;53.020;6.598;2022-09-30T13:52:50;9.27;;;7.50;;
52186;SDS011;38161;53.020;6.598;2022-09-30T13:55:41;9.95;;;8.02;;
52186;SDS011;38161;53.020;6.598;2022-09-30T14:01:02;10.60;;;8.23;;
52186;SDS011;38161;53.020;6.598;2022-09-30T14:18:21;10.55;;;8.32;;
52186;SDS011;38161;53.020;6.598;2022-09-30T14:23:37;11.18;;;7.95;;
52186;SDS011;38161;53.020;6.598;2022-09-30T14:29:00;10.10;;;8.13;;
52186;SDS011;38161;53.020;6.598;2022-09-30T14:31:44;9.15;;;7.78;;
52186;SDS011;38161;53.020;6.598;2022-09-30T14:34:14;10.30;;;8.38;;
52186;SDS011;38161;53.020;6.598;2022-09-30T14:36:42;10.00;;;7.00;;
52186;SDS011;38161;53.020;6.598;2022-09-30T14:39:14;10.35;;;7.45;;
52186;SDS011;38161;53.020;6.598;2022-09-30T14:41:57;9.68;;;7.45;;
52186;SDS011;38161;53.020;6.598;2022-09-30T14:44:26;11.13;;;7.85;;
52186;SDS011;38161;53.020;6.598;2022-09-30T14:46:57;8.95;;;6.97;;
52186;SDS011;38161;53.020;6.598;2022-09-30T14:49:27;9.00;;;7.25;;
52186;SDS011;38161;53.020;6.598;2022-09-30T14:51:58;9.30;;;7.38;;
52186;SDS011;38161;53.020;6.598;2022-09-30T14:54:27;9.65;;;7.32;;
52186;SDS011;38161;53.020;6.598;2022-09-30T14:56:55;8.98;;;6.80;;
52186;SDS011;38161;53.020;6.598;2022-09-30T14:59:23;10.27;;;6.88;;
52186;SDS011;38161;53.020;6.598;2022-09-30T15:02:01;8.13;;;6.30;;
52186;SDS011;38161;53.020;6.598;2022-09-30T15:04:33;8.75;;;6.45;;
52186;SDS011;38161;53.020;6.598;2022-09-30T15:07:03;8.40;;;6.75;;
52186;SDS011;38161;53.020;6.598;2022-09-30T15:09:51;10.25;;;7.28;;
52186;SDS011;38161;53.020;6.598;2022-09-30T15:14:54;8.45;;;6.68;;
52186;SDS011;38161;53.020;6.598;2022-09-30T15:17:25;8.68;;;6.38;;
52186;SDS011;38161;53.020;6.598;2022-09-30T15:19:53;7.97;;;6.40;;
52186;SDS011;38161;53.020;6.598;2022-09-30T15:22:20;9.27;;;6.30;;
52186;SDS011;38161;53.020;6.598;2022-09-30T15:24:50;8.10;;;6.20;;
52186;SDS011;38161;53.020;6.598;2022-09-30T15:27:23;9.50;;;6.20;;
52186;SDS011;38161;53.020;6.598;2022-09-30T15:29:55;8.35;;;6.93;;
52186;SDS011;38161;53.020;6.598;2022-09-30T15:32:22;9.90;;;7.13;;
52186;SDS011;38161;53.020;6.598;2022-09-30T15:34:50;9.68;;;6.90;;
52186;SDS011;38161;53.020;6.598;2022-09-30T15:37:23;9.45;;;6.85;;
52186;SDS011;38161;53.020;6.598;2022-09-30T15:39:57;7.07;;;5.95;;
52186;SDS011;38161;53.020;6.598;2022-09-30T15:42:45;7.07;;;6.25;;
52186;SDS011;38161;53.020;6.598;2022-09-30T15:48:05;8.80;;;6.55;;
52186;SDS011;38161;53.020;6.598;2022-09-30T15:50:55;8.30;;;6.03;;
52186;SDS011;38161;53.020;6.598;2022-09-30T15:56:14;8.45;;;6.22;;
52186;SDS011;38161;53.020;6.598;2022-09-30T15:58:40;7.82;;;6.07;;
52186;SDS011;38161;53.020;6.598;2022-09-30T16:01:18;9.40;;;5.72;;
52186;SDS011;38161;53.020;6.598;2022-09-30T16:04:31;7.75;;;5.88;;
52186;SDS011;38161;53.020;6.598;2022-09-30T16:17:37;6.88;;;5.30;;
52186;SDS011;38161;53.020;6.598;2022-09-30T16:30:26;12.02;;;8.68;;
52186;SDS011;38161;53.020;6.598;2022-09-30T16:32:57;9.45;;;7.93;;
52186;SDS011;38161;53.020;6.598;2022-09-30T16:35:26;11.02;;;8.70;;
52186;SDS011;38161;53.020;6.598;2022-09-30T16:37:57;10.32;;;8.38;;
52186;SDS011;38161;53.020;6.598;2022-09-30T16:40:25;11.40;;;8.65;;
52186;SDS011;38161;53.020;6.598;2022-09-30T16:42:52;11.80;;;9.23;;
52186;SDS011;38161;53.020;6.598;2022-09-30T16:45:19;11.27;;;8.65;;
52186;SDS011;38161;53.020;6.598;2022-09-30T16:47:46;10.18;;;8.70;;
52186;SDS011;38161;53.020;6.598;2022-09-30T16:50:23;9.35;;;8.32;;
52186;SDS011;38161;53.020;6.598;2022-09-30T16:52:53;11.35;;;8.70;;
52186;SDS011;38161;53.020;6.598;2022-09-30T16:57:45;9.60;;;7.57;;
52186;SDS011;38161;53.020;6.598;2022-09-30T17:00:14;9.30;;;7.93;;
52186;SDS011;38161;53.020;6.598;2022-09-30T17:02:45;9.35;;;7.75;;
52186;SDS011;38161;53.020;6.598;2022-09-30T17:05:13;8.88;;;7.38;;
52186;SDS011;38161;53.020;6.598;2022-09-30T17:07:43;11.18;;;7.25;;
52186;SDS011;38161;53.020;6.598;2022-09-30T17:10:20;8.48;;;7.30;;
52186;SDS011;38161;53.020;6.598;2022-09-30T17:12:52;8.70;;;6.60;;
52186;SDS011;38161;53.020;6.598;2022-09-30T17:15:19;8.20;;;7.07;;
52186;SDS011;38161;53.020;6.598;2022-09-30T17:17:46;7.68;;;6.13;;
52186;SDS011;38161;53.020;6.598;2022-09-30T17:20:12;8.50;;;6.25;;
52186;SDS011;38161;53.020;6.598;2022-09-30T17:22:38;9.18;;;6.35;;
52186;SDS011;38161;53.020;6.598;2022-09-30T17:25:04;8.85;;;6.70;;
52186;SDS011;38161;53.020;6.598;2022-09-30T17:27:31;8.27;;;6.80;;
52186;SDS011;38161;53.020;6.598;2022-09-30T17:29:57;9.23;;;7.22;;
52186;SDS011;38161;53.020;6.598;2022-09-30T17:32:22;10.03;;;7.10;;
52186;SDS011;38161;53.020;6.598;2022-09-30T17:34:48;7.75;;;6.70;;
52186;SDS011;38161;53.020;6.598;2022-09-30T17:37:14;9.20;;;6.32;;
52186;SDS011;38161;53.020;6.598;2022-09-30T17:39:40;9.47;;;6.90;;
52186;SDS011;38161;53.020;6.598;2022-09-30T17:42:05;9.13;;;6.73;;
52186;SDS011;38161;53.020;6.598;2022-09-30T17:44:55;7.30;;;5.60;;
52186;SDS011;38161;53.020;6.598;2022-09-30T17:47:21;7.35;;;5.85;;
52186;SDS011;38161;53.020;6.598;2022-09-30T17:49:47;10.52;;;6.13;;
52186;SDS011;38161;53.020;6.598;2022-09-30T17:52:13;8.57;;;5.35;;
52186;SDS011;38161;53.020;6.598;2022-09-30T17:54:40;6.93;;;5.60;;
52186;SDS011;38161;53.020;6.598;2022-09-30T17:57:06;7.60;;;5.35;;
52186;SDS011;38161;53.020;6.598;2022-09-30T17:59:32;6.80;;;4.90;;
52186;SDS011;38161;53.020;6.598;2022-09-30T18:01:58;5.72;;;4.50;;
52186;SDS011;38161;53.020;6.598;2022-09-30T18:04:24;8.02;;;5.22;;
52186;SDS011;38161;53.020;6.598;2022-09-30T18:06:51;6.38;;;4.65;;
52186;SDS011;38161;53.020;6.598;2022-09-30T18:09:17;7.78;;;4.88;;
52186;SDS011;38161;53.020;6.598;2022-09-30T18:11:43;6.03;;;4.85;;
52186;SDS011;38161;53.020;6.598;2022-09-30T18:14:09;6.93;;;4.70;;
52186;SDS011;38161;53.020;6.598;2022-09-30T18:16:35;7.07;;;5.40;;
52186;SDS011;38161;53.020;6.598;2022-09-30T18:19:05;7.80;;;4.57;;
52186;SDS011;38161;53.020;6.598;2022-09-30T18:21:32;6.18;;;4.35;;
52186;SDS011;38161;53.020;6.598;2022-09-30T18:24:00;6.22;;;4.13;;
52186;SDS011;38161;53.020;6.598;2022-09-30T18:28:53;7.13;;;3.53;;
52186;SDS011;38161;53.020;6.598;2022-09-30T18:31:22;5.10;;;3.78;;
52186;SDS011;38161;53.020;6.598;2022-09-30T18:33:58;5.80;;;4.00;;
52186;SDS011;38161;53.020;6.598;2022-09-30T18:36:25;5.78;;;3.95;;
52186;SDS011;38161;53.020;6.598;2022-09-30T18:38:53;6.00;;;3.75;;
52186;SDS011;38161;53.020;6.598;2022-09-30T18:41:22;7.72;;;3.53;;
52186;SDS011;38161;53.020;6.598;2022-09-30T18:43:50;6.05;;;3.30;;
52186;SDS011;38161;53.020;6.598;2022-09-30T18:46:17;4.82;;;3.55;;
52186;SDS011;38161;53.020;6.598;2022-09-30T18:48:47;7.00;;;3.80;;
52186;SDS011;38161;53.020;6.598;2022-09-30T18:51:14;7.22;;;3.65;;
52186;SDS011;38161;53.020;6.598;2022-09-30T18:53:41;6.68;;;4.15;;
52186;SDS011;38161;53.020;6.598;2022-09-30T18:56:08;5.95;;;3.90;;
52186;SDS011;38161;53.020;6.598;2022-09-30T18:58:34;9.20;;;4.30;;
52186;SDS011;38161;53.020;6.598;2022-09-30T19:01:01;7.60;;;3.95;;
52186;SDS011;38161;53.020;6.598;2022-09-30T19:05:53;7.63;;;4.25;;
52186;SDS011;38161;53.020;6.598;2022-09-30T19:08:20;6.32;;;4.50;;
52186;SDS011;38161;53.020;6.598;2022-09-30T19:10:46;8.80;;;4.78;;